Time;durP1;ratioP1;P1;durP2;ratioP2;P2;SDS_P1;SDS_P2;PMS_P1;PMS_P2;Temp;Humidity;BMP_temperature;BMP_pressure;BME280_temperature;BME280_humidity;BME280_pressure;Samples;Min_cycle;Max_cycle;Signal;HPM_P1;HPM_P2
2023/05/24 00:02:25;;;;;;;11.27;6.28;;;;;;;;;;5033153;28;20475;-84
2023/05/24 00:04:51;;;;;;;9.05;6.65;;;;;;;;;;5033114;28;20025;-84
2023/05/24 00:07:17;;;;;;;11.07;7.18;;;;;;;;;;5033516;28;20614;-84
2023/05/24 00:09:43;;;;;;;8.70;6.47;;;;;;;;;;5032858;28;20111;-84
2023/05/24 00:12:09;;;;;;;9.55;7.18;;;;;;;;;;5035186;28;20029;-84
2023/05/24 00:14:34;;;;;;;9.25;6.30;;;;;;;;;;5050222;28;20029;-84
2023/05/24 00:17:00;;;;;;;10.18;7.00;;;;;;;;;;5045773;28;20035;-84
2023/05/24 00:19:26;;;;;;;11.30;6.50;;;;;;;;;;5025037;28;20455;-83
2023/05/24 00:21:52;;;;;;;11.85;6.53;;;;;;;;;;5038728;28;20039;-84
2023/05/24 00:24:17;;;;;;;10.07;6.85;;;;;;;;;;5034241;28;20128;-83
2023/05/24 00:26:43;;;;;;;9.43;6.78;;;;;;;;;;5033040;28;20112;-83
2023/05/24 00:29:09;;;;;;;11.32;7.07;;;;;;;;;;5032549;28;20037;-84
2023/05/24 00:31:37;;;;;;;9.43;6.50;;;;;;;;;;5015029;28;20530;-84
2023/05/24 00:34:02;;;;;;;11.23;7.22;;;;;;;;;;5026503;28;20029;-84
2023/05/24 00:36:28;;;;;;;9.70;7.10;;;;;;;;;;5014946;28;20483;-84
2023/05/24 00:38:53;;;;;;;9.43;7.20;;;;;;;;;;5046754;28;20037;-84
2023/05/24 00:41:19;;;;;;;11.40;6.72;;;;;;;;;;5047644;28;20040;-84
2023/05/24 00:43:45;;;;;;;10.75;6.80;;;;;;;;;;5025855;28;20029;-84
2023/05/24 00:46:14;;;;;;;8.80;7.00;;;;;;;;;;5039473;28;20037;-84
2023/05/24 00:48:40;;;;;;;9.32;7.00;;;;;;;;;;5035613;28;20041;-84
2023/05/24 00:51:05;;;;;;;8.50;6.80;;;;;;;;;;5034649;28;20040;-84
2023/05/24 00:53:34;;;;;;;8.50;6.47;;;;;;;;;;5051234;28;20422;-84
2023/05/24 00:56:00;;;;;;;9.18;5.78;;;;;;;;;;5016781;28;20041;-83
2023/05/24 00:58:29;;;;;;;7.80;5.90;;;;;;;;;;5036322;28;20055;-84
2023/05/24 01:01:00;;;;;;;7.97;5.97;;;;;;;;;;5036794;28;20037;-84
2023/05/24 01:03:28;;;;;;;7.82;5.85;;;;;;;;;;5043904;28;20486;-83
2023/05/24 01:06:02;;;;;;;7.30;5.15;;;;;;;;;;5033173;28;20464;-84
2023/05/24 01:09:06;;;;;;;8.52;5.80;;;;;;;;;;5036405;28;20471;-84
2023/05/24 01:11:58;;;;;;;6.88;5.40;;;;;;;;;;5013549;28;20514;-84
2023/05/24 01:14:46;;;;;;;11.00;5.68;;;;;;;;;;5035778;28;20032;-84
2023/05/24 01:17:31;;;;;;;7.50;5.93;;;;;;;;;;5001854;28;20443;-83
2023/05/24 01:20:05;;;;;;;7.90;5.53;;;;;;;;;;5049800;28;20025;-84
2023/05/24 01:22:52;;;;;;;6.95;5.60;;;;;;;;;;5035048;28;20124;-84
2023/05/24 01:25:37;;;;;;;8.25;5.88;;;;;;;;;;5039756;28;20033;-84
2023/05/24 01:28:05;;;;;;;7.55;5.63;;;;;;;;;;5037333;28;20037;-84
2023/05/24 01:30:32;;;;;;;8.90;6.20;;;;;;;;;;5002955;28;20058;-83
2023/05/24 01:32:58;;;;;;;9.15;6.00;;;;;;;;;;5049596;28;20029;-84
2023/05/24 01:35:23;;;;;;;9.23;6.22;;;;;;;;;;5045440;28;20108;-84
2023/05/24 01:37:48;;;;;;;7.50;5.90;;;;;;;;;;5041209;28;20044;-84
2023/05/24 01:40:14;;;;;;;13.15;6.25;;;;;;;;;;5037775;28;20079;-84
2023/05/24 01:43:03;;;;;;;7.47;5.85;;;;;;;;;;5035737;28;20032;-84
2023/05/24 01:45:38;;;;;;;8.00;5.72;;;;;;;;;;5035411;28;20029;-84
2023/05/24 01:48:19;;;;;;;7.95;5.93;;;;;;;;;;5008477;28;20048;-84
2023/05/24 01:50:50;;;;;;;9.07;5.93;;;;;;;;;;5040262;28;20037;-84
2023/05/24 01:53:18;;;;;;;10.70;6.22;;;;;;;;;;5015729;28;20033;-84
2023/05/24 01:55:46;;;;;;;8.18;5.97;;;;;;;;;;5035744;28;20067;-84
2023/05/24 01:58:15;;;;;;;9.23;6.80;;;;;;;;;;5035130;28;20395;-83
2023/05/24 02:00:42;;;;;;;9.73;6.20;;;;;;;;;;5025082;28;20080;-82
2023/05/24 02:03:08;;;;;;;10.10;5.60;;;;;;;;;;5034011;28;20077;-84
2023/05/24 02:05:34;;;;;;;7.82;6.15;;;;;;;;;;5033799;28;20032;-84
2023/05/24 02:08:04;;;;;;;8.43;5.97;;;;;;;;;;5017485;28;20030;-84
2023/05/24 02:10:30;;;;;;;10.52;6.47;;;;;;;;;;5018046;28;20501;-84
2023/05/24 02:12:55;;;;;;;9.13;6.47;;;;;;;;;;5026290;28;20096;-84
2023/05/24 02:15:21;;;;;;;9.05;6.55;;;;;;;;;;5035927;28;20033;-84
2023/05/24 02:17:46;;;;;;;8.82;6.18;;;;;;;;;;5036036;28;20039;-84
2023/05/24 02:20:12;;;;;;;7.55;5.90;;;;;;;;;;5032422;28;20029;-82
2023/05/24 02:22:38;;;;;;;8.23;6.28;;;;;;;;;;5050178;28;20038;-83
2023/05/24 02:25:04;;;;;;;10.27;6.50;;;;;;;;;;5036693;28;20465;-84
2023/05/24 02:27:30;;;;;;;8.32;5.95;;;;;;;;;;5017844;28;20406;-84
2023/05/24 02:29:56;;;;;;;7.28;5.60;;;;;;;;;;5035348;28;20044;-84
2023/05/24 02:32:21;;;;;;;8.32;6.28;;;;;;;;;;5045504;28;20115;-84
2023/05/24 02:34:47;;;;;;;8.88;5.68;;;;;;;;;;5032325;28;20116;-83
2023/05/24 02:37:13;;;;;;;9.60;6.15;;;;;;;;;;5029218;28;20033;-83
2023/05/24 02:39:39;;;;;;;9.45;6.50;;;;;;;;;;5025312;28;20034;-84
2023/05/24 02:42:05;;;;;;;8.15;6.03;;;;;;;;;;5038348;28;20112;-83
2023/05/24 02:44:31;;;;;;;7.53;5.97;;;;;;;;;;5017422;28;20136;-84
2023/05/24 02:46:56;;;;;;;7.50;6.05;;;;;;;;;;5016931;28;20033;-84
2023/05/24 02:49:22;;;;;;;7.95;6.32;;;;;;;;;;5034977;28;20029;-83
2023/05/24 02:51:47;;;;;;;8.27;6.03;;;;;;;;;;5034776;28;20025;-84
2023/05/24 02:54:13;;;;;;;7.65;6.15;;;;;;;;;;5034876;28;20033;-83
2023/05/24 02:56:39;;;;;;;9.50;6.45;;;;;;;;;;5032229;28;20036;-84
2023/05/24 02:59:04;;;;;;;8.70;5.68;;;;;;;;;;5016756;28;20052;-84
2023/05/24 03:01:33;;;;;;;8.70;5.93;;;;;;;;;;5016898;28;20083;-84
2023/05/24 03:03:59;;;;;;;10.68;6.47;;;;;;;;;;5024343;28;20543;-84
2023/05/24 03:06:24;;;;;;;9.45;5.88;;;;;;;;;;5022041;28;20057;-84
2023/05/24 03:08:50;;;;;;;9.63;6.80;;;;;;;;;;5036268;28;20028;-84
2023/05/24 03:11:20;;;;;;;7.93;6.05;;;;;;;;;;5034049;28;20038;-84
2023/05/24 03:13:47;;;;;;;10.55;6.45;;;;;;;;;;5015696;28;20032;-83
2023/05/24 03:16:14;;;;;;;8.88;6.03;;;;;;;;;;5033142;28;20029;-83
2023/05/24 03:18:39;;;;;;;7.60;6.05;;;;;;;;;;5034447;28;20025;-84
2023/05/24 03:21:06;;;;;;;8.57;6.65;;;;;;;;;;5016837;28;20040;-84
2023/05/24 03:23:32;;;;;;;8.13;6.25;;;;;;;;;;5030885;28;20037;-84
2023/05/24 03:25:58;;;;;;;9.02;6.22;;;;;;;;;;5030775;28;20025;-84
2023/05/24 03:28:23;;;;;;;8.95;6.28;;;;;;;;;;5027400;28;20028;-84
2023/05/24 03:30:49;;;;;;;8.02;6.55;;;;;;;;;;5040722;28;20029;-84
2023/05/24 03:33:16;;;;;;;10.55;6.20;;;;;;;;;;5019184;28;20064;-83
2023/05/24 03:35:41;;;;;;;10.65;6.13;;;;;;;;;;5016484;28;20103;-84
2023/05/24 03:38:08;;;;;;;9.40;6.25;;;;;;;;;;5015907;28;20390;-84
2023/05/24 03:40:37;;;;;;;8.65;6.28;;;;;;;;;;5030567;28;20483;-84
2023/05/24 03:43:11;;;;;;;7.53;5.78;;;;;;;;;;5021779;28;20029;-84
2023/05/24 03:45:57;;;;;;;9.82;6.28;;;;;;;;;;5019005;28;20510;-84
2023/05/24 03:48:23;;;;;;;7.32;6.15;;;;;;;;;;5032314;28;20492;-84
2023/05/24 03:50:50;;;;;;;7.38;6.13;;;;;;;;;;5033916;28;20030;-84
2023/05/24 03:53:16;;;;;;;9.27;7.35;;;;;;;;;;5024475;28;20025;-84
2023/05/24 03:55:42;;;;;;;12.32;7.05;;;;;;;;;;5031639;28;20412;-83
2023/05/24 03:58:11;;;;;;;7.18;5.75;;;;;;;;;;5015601;28;20029;-84
2023/05/24 04:00:37;;;;;;;9.82;6.30;;;;;;;;;;5021495;28;20115;-83
2023/05/24 04:03:05;;;;;;;11.18;6.70;;;;;;;;;;5031934;28;20065;-84
2023/05/24 04:05:32;;;;;;;9.32;6.75;;;;;;;;;;5026129;28;20033;-83
2023/05/24 04:07:57;;;;;;;8.52;6.63;;;;;;;;;;5040948;28;20653;-84
2023/05/24 04:10:23;;;;;;;8.02;6.05;;;;;;;;;;5038294;28;20040;-84
2023/05/24 04:12:48;;;;;;;10.80;5.78;;;;;;;;;;5016510;28;20036;-84
2023/05/24 04:15:15;;;;;;;10.52;6.25;;;;;;;;;;5016284;28;20017;-83
2023/05/24 04:17:42;;;;;;;8.93;6.55;;;;;;;;;;5016292;28;20056;-84
2023/05/24 04:20:09;;;;;;;8.95;7.47;;;;;;;;;;5016098;28;20078;-84
2023/05/24 04:22:37;;;;;;;10.63;6.55;;;;;;;;;;5014983;28;20467;-84
2023/05/24 04:25:03;;;;;;;9.18;6.10;;;;;;;;;;5015230;28;20021;-84
2023/05/24 04:27:31;;;;;;;8.88;6.47;;;;;;;;;;5030853;28;20565;-84
2023/05/24 04:29:56;;;;;;;9.27;6.60;;;;;;;;;;5027701;28;20025;-83
2023/05/24 04:32:22;;;;;;;8.95;7.20;;;;;;;;;;5015783;28;20149;-84
2023/05/24 04:34:49;;;;;;;9.00;7.10;;;;;;;;;;5033800;28;20021;-84
2023/05/24 04:37:16;;;;;;;8.13;6.40;;;;;;;;;;5033608;28;20029;-84
2023/05/24 04:39:44;;;;;;;10.57;7.13;;;;;;;;;;4999364;28;20092;-83
2023/05/24 04:42:11;;;;;;;8.30;6.50;;;;;;;;;;5049948;28;20391;-84
2023/05/24 04:44:36;;;;;;;8.90;6.80;;;;;;;;;;5046925;28;20052;-84
2023/05/24 04:47:02;;;;;;;11.70;7.32;;;;;;;;;;5041374;28;20495;-83
2023/05/24 04:49:28;;;;;;;9.13;7.13;;;;;;;;;;5020789;28;20398;-84
2023/05/24 04:51:57;;;;;;;10.32;7.47;;;;;;;;;;5035692;28;20037;-84
2023/05/24 04:54:23;;;;;;;7.97;6.55;;;;;;;;;;5042527;28;20037;-84
2023/05/24 04:56:48;;;;;;;11.88;7.22;;;;;;;;;;5045943;28;20047;-84
2023/05/24 04:59:14;;;;;;;9.48;7.10;;;;;;;;;;5042025;28;20033;-84
2023/05/24 05:01:39;;;;;;;8.85;6.80;;;;;;;;;;5038735;28;20373;-84
2023/05/24 05:04:06;;;;;;;11.30;8.07;;;;;;;;;;5016687;28;20037;-84
2023/05/24 05:06:38;;;;;;;9.93;7.00;;;;;;;;;;5034362;28;20029;-84
2023/05/24 05:09:12;;;;;;;7.90;6.32;;;;;;;;;;5032436;28;20551;-84
2023/05/24 05:11:38;;;;;;;9.32;7.32;;;;;;;;;;5040958;28;20029;-83
2023/05/24 05:14:03;;;;;;;10.10;7.50;;;;;;;;;;5038181;28;20068;-84
2023/05/24 05:16:29;;;;;;;11.77;7.18;;;;;;;;;;5034699;28;20046;-84
2023/05/24 05:18:54;;;;;;;10.10;7.38;;;;;;;;;;5049692;28;20033;-84
2023/05/24 05:21:20;;;;;;;10.70;7.57;;;;;;;;;;5047981;28;20040;-84
2023/05/24 05:23:45;;;;;;;8.70;7.20;;;;;;;;;;5043290;28;20116;-83
2023/05/24 05:26:11;;;;;;;10.60;7.45;;;;;;;;;;5040533;28;20057;-84
2023/05/24 05:28:37;;;;;;;11.13;7.82;;;;;;;;;;5036635;28;20056;-84
2023/05/24 05:31:02;;;;;;;10.00;8.20;;;;;;;;;;5035288;28;20120;-84
2023/05/24 05:33:31;;;;;;;10.35;8.10;;;;;;;;;;5035526;28;20489;-84
2023/05/24 05:35:56;;;;;;;10.50;8.00;;;;;;;;;;5034942;28;20079;-84
2023/05/24 05:38:22;;;;;;;12.60;9.85;;;;;;;;;;5039662;28;20037;-84
2023/05/24 05:40:47;;;;;;;10.18;7.78;;;;;;;;;;5038560;28;20047;-84
2023/05/24 05:43:13;;;;;;;10.82;8.32;;;;;;;;;;5054772;28;20037;-84
2023/05/24 05:45:39;;;;;;;10.55;7.78;;;;;;;;;;5047072;28;20033;-85
2023/05/24 05:48:04;;;;;;;10.77;7.10;;;;;;;;;;5038142;28;20033;-84
2023/05/24 05:50:30;;;;;;;9.40;7.13;;;;;;;;;;5040857;28;20049;-86
2023/05/24 05:52:56;;;;;;;10.32;6.78;;;;;;;;;;5036696;28;20033;-86
2023/05/24 05:55:23;;;;;;;10.98;6.93;;;;;;;;;;5035670;28;20116;-86
2023/05/24 05:57:48;;;;;;;10.35;7.68;;;;;;;;;;5035491;28;20088;-86
2023/05/24 06:00:14;;;;;;;9.60;7.25;;;;;;;;;;5035552;28;20117;-86
2023/05/24 06:02:39;;;;;;;9.32;7.40;;;;;;;;;;5035495;28;20431;-86
2023/05/24 06:05:05;;;;;;;14.75;6.90;;;;;;;;;;5033639;28;20041;-86
2023/05/24 06:07:31;;;;;;;8.82;6.93;;;;;;;;;;5042035;28;20039;-87
2023/05/24 06:09:56;;;;;;;11.60;6.50;;;;;;;;;;5052411;28;20115;-86
2023/05/24 06:12:22;;;;;;;10.23;6.90;;;;;;;;;;5043976;28;20072;-86
2023/05/24 06:14:49;;;;;;;8.38;6.75;;;;;;;;;;5036161;28;20056;-85
2023/05/24 06:17:15;;;;;;;10.88;7.07;;;;;;;;;;5035064;28;20033;-85
2023/05/24 06:19:42;;;;;;;11.38;7.13;;;;;;;;;;5043299;28;20025;-87
2023/05/24 06:22:08;;;;;;;9.88;7.10;;;;;;;;;;5052598;28;20676;-87
2023/05/24 06:24:33;;;;;;;8.90;6.57;;;;;;;;;;5048423;28;20041;-87
2023/05/24 06:26:59;;;;;;;9.65;6.82;;;;;;;;;;5046232;28;20039;-86
2023/05/24 06:29:24;;;;;;;9.40;6.88;;;;;;;;;;5041989;28;20029;-87
2023/05/24 06:31:50;;;;;;;11.57;7.22;;;;;;;;;;5036540;28;20096;-87
2023/05/24 06:34:17;;;;;;;9.43;7.15;;;;;;;;;;5035124;28;20033;-86
2023/05/24 06:36:46;;;;;;;10.02;7.35;;;;;;;;;;5035289;28;20097;-87
2023/05/24 06:39:13;;;;;;;12.18;7.05;;;;;;;;;;5043082;28;20103;-87
2023/05/24 06:41:39;;;;;;;10.38;7.15;;;;;;;;;;5040309;28;20037;-87
2023/05/24 06:44:05;;;;;;;10.80;7.22;;;;;;;;;;5035434;28;20068;-86
2023/05/24 06:46:31;;;;;;;10.82;7.38;;;;;;;;;;5032877;28;20061;-86
2023/05/24 06:48:57;;;;;;;11.50;7.93;;;;;;;;;;5032831;28;20033;-86
2023/05/24 06:51:22;;;;;;;11.40;8.35;;;;;;;;;;5034541;28;20757;-87
2023/05/24 06:53:48;;;;;;;11.57;9.02;;;;;;;;;;5037426;28;20038;-87
2023/05/24 06:56:14;;;;;;;11.90;8.60;;;;;;;;;;5019562;28;20030;-88
2023/05/24 06:58:39;;;;;;;14.15;9.77;;;;;;;;;;5048948;28;20487;-87
2023/05/24 07:01:05;;;;;;;13.15;10.40;;;;;;;;;;5052146;28;20037;-86
2023/05/24 07:03:31;;;;;;;15.52;9.30;;;;;;;;;;5048725;28;20029;-85
2023/05/24 07:05:57;;;;;;;18.20;9.35;;;;;;;;;;5045854;28;20038;-86
2023/05/24 07:08:24;;;;;;;11.52;8.23;;;;;;;;;;5043339;28;20029;-85
2023/05/24 07:10:49;;;;;;;11.15;8.50;;;;;;;;;;5040281;28;20053;-86
2023/05/24 07:13:15;;;;;;;13.15;9.18;;;;;;;;;;5037709;28;20033;-87
2023/05/24 07:15:41;;;;;;;13.73;9.23;;;;;;;;;;5038041;28;20022;-86
2023/05/24 07:18:07;;;;;;;13.88;8.98;;;;;;;;;;5037927;28;20037;-86
2023/05/24 07:20:32;;;;;;;14.10;8.85;;;;;;;;;;5037989;28;20037;-86
2023/05/24 07:22:59;;;;;;;13.88;8.52;;;;;;;;;;5044572;28;20360;-85
2023/05/24 07:25:25;;;;;;;12.95;8.38;;;;;;;;;;5052807;28;20041;-86
2023/05/24 07:27:51;;;;;;;10.65;8.13;;;;;;;;;;5049215;28;20036;-85
2023/05/24 07:30:16;;;;;;;10.80;8.20;;;;;;;;;;5044778;28;20059;-85
2023/05/24 07:32:42;;;;;;;11.18;7.97;;;;;;;;;;5039935;28;20052;-86
2023/05/24 07:35:11;;;;;;;10.30;8.13;;;;;;;;;;5035652;28;20113;-84
2023/05/24 07:37:37;;;;;;;13.10;8.35;;;;;;;;;;5032326;28;20034;-87
2023/05/24 07:40:04;;;;;;;11.30;8.30;;;;;;;;;;5034472;28;20483;-85
2023/05/24 07:42:30;;;;;;;12.57;8.15;;;;;;;;;;5034826;28;20095;-85
2023/05/24 07:44:56;;;;;;;11.80;8.35;;;;;;;;;;5036732;28;20148;-85
2023/05/24 07:47:21;;;;;;;13.73;8.85;;;;;;;;;;5037031;28;20056;-85
2023/05/24 07:49:47;;;;;;;13.45;9.25;;;;;;;;;;5051355;28;20033;-86
2023/05/24 07:52:13;;;;;;;12.63;9.82;;;;;;;;;;5031786;28;20037;-87
2023/05/24 07:54:39;;;;;;;11.90;9.68;;;;;;;;;;5036031;28;20030;-86
2023/05/24 07:57:05;;;;;;;13.07;10.18;;;;;;;;;;5016900;28;20108;-85
2023/05/24 07:59:30;;;;;;;13.70;9.57;;;;;;;;;;5034983;28;20760;-85
2023/05/24 08:02:02;;;;;;;11.32;8.77;;;;;;;;;;5046525;28;20068;-85
2023/05/24 08:04:28;;;;;;;12.30;8.15;;;;;;;;;;5049798;28;20045;-85
2023/05/24 08:06:54;;;;;;;12.57;8.98;;;;;;;;;;5047485;28;20075;-86
2023/05/24 08:09:21;;;;;;;13.73;8.95;;;;;;;;;;5044575;28;20033;-86
2023/05/24 08:11:46;;;;;;;12.25;8.20;;;;;;;;;;5042063;28;20048;-87
2023/05/24 08:14:12;;;;;;;11.77;8.88;;;;;;;;;;5047397;28;20041;-88
2023/05/24 08:16:38;;;;;;;12.25;7.80;;;;;;;;;;5027992;28;20088;-87
2023/05/24 08:19:03;;;;;;;11.43;8.45;;;;;;;;;;5044545;28;20081;-87
2023/05/24 08:21:29;;;;;;;11.02;8.60;;;;;;;;;;5046389;28;20233;-88
2023/05/24 08:23:55;;;;;;;10.45;8.15;;;;;;;;;;5043960;28;20092;-87
2023/05/24 08:26:23;;;;;;;9.57;8.38;;;;;;;;;;5045101;28;20454;-89
2023/05/24 08:28:48;;;;;;;14.63;9.50;;;;;;;;;;5026405;28;20037;-87
2023/05/24 08:31:14;;;;;;;12.05;8.30;;;;;;;;;;5056190;28;20067;-88
2023/05/24 08:33:39;;;;;;;10.90;8.82;;;;;;;;;;5053254;28;20041;-88
2023/05/24 08:36:05;;;;;;;10.45;8.10;;;;;;;;;;5059716;28;20486;-88
2023/05/24 08:38:31;;;;;;;10.93;7.85;;;;;;;;;;5056558;28;20033;-88
2023/05/24 08:40:56;;;;;;;10.05;7.68;;;;;;;;;;5052828;28;20038;-87
2023/05/24 08:43:23;;;;;;;9.48;7.78;;;;;;;;;;5049743;28;20037;-88
2023/05/24 08:45:50;;;;;;;12.30;8.10;;;;;;;;;;5045754;28;20034;-88
2023/05/24 08:48:17;;;;;;;10.02;7.68;;;;;;;;;;5043825;28;20041;-88
2023/05/24 08:50:43;;;;;;;12.23;8.13;;;;;;;;;;5044042;28;20121;-88
2023/05/24 08:53:10;;;;;;;10.70;7.70;;;;;;;;;;5043688;28;20652;-89
2023/05/24 08:58:03;;;;;;;12.45;7.50;;;;;;;;;;4994515;28;20136;-85
2023/05/24 09:00:29;;;;;;;12.02;8.00;;;;;;;;;;4961182;28;20034;-86
2023/05/24 09:02:56;;;;;;;9.65;7.20;;;;;;;;;;4979352;28;20397;-84
2023/05/24 09:05:24;;;;;;;11.20;7.20;;;;;;;;;;4995474;28;20069;-84
2023/05/24 09:07:50;;;;;;;10.52;7.10;;;;;;;;;;4994964;28;20034;-83
2023/05/24 09:10:19;;;;;;;12.27;7.47;;;;;;;;;;4992584;28;20057;-84
2023/05/24 09:12:54;;;;;;;9.48;6.68;;;;;;;;;;4970030;28;20062;-85
2023/05/24 09:15:20;;;;;;;8.68;6.70;;;;;;;;;;4998417;28;20046;-85
2023/05/24 09:17:46;;;;;;;10.50;7.43;;;;;;;;;;4998103;28;20388;-84
2023/05/24 09:20:12;;;;;;;10.18;6.63;;;;;;;;;;4998844;28;20030;-84
2023/05/24 09:22:40;;;;;;;9.43;7.75;;;;;;;;;;4997228;28;20582;-84
2023/05/24 09:25:07;;;;;;;10.73;7.30;;;;;;;;;;4989350;28;20043;-87
2023/05/24 09:27:33;;;;;;;10.32;7.32;;;;;;;;;;5000729;28;20050;-83
2023/05/24 09:30:00;;;;;;;10.32;7.43;;;;;;;;;;5000389;28;20045;-85
2023/05/24 09:32:27;;;;;;;9.93;7.03;;;;;;;;;;4998493;28;20058;-84
2023/05/24 09:34:55;;;;;;;10.63;5.63;;;;;;;;;;4981745;28;20030;-84
2023/05/24 09:37:23;;;;;;;9.30;5.80;;;;;;;;;;4996614;28;20046;-84
2023/05/24 09:39:50;;;;;;;8.75;6.90;;;;;;;;;;4978552;28;20041;-85
2023/05/24 09:42:23;;;;;;;12.18;7.50;;;;;;;;;;4998950;28;20109;-85
2023/05/24 09:45:00;;;;;;;10.43;6.40;;;;;;;;;;4997408;28;20034;-85
2023/05/24 09:47:30;;;;;;;8.48;6.80;;;;;;;;;;4996800;28;20053;-86
2023/05/24 09:49:55;;;;;;;10.95;7.60;;;;;;;;;;4982666;28;20042;-85
2023/05/24 09:52:21;;;;;;;11.82;7.40;;;;;;;;;;5011755;28;20397;-85
2023/05/24 09:54:47;;;;;;;9.88;7.82;;;;;;;;;;5001122;28;20471;-85
2023/05/24 09:57:16;;;;;;;12.27;7.95;;;;;;;;;;5001041;28;20042;-85
2023/05/24 09:59:43;;;;;;;10.90;7.65;;;;;;;;;;5000916;28;20042;-86
2023/05/24 10:02:10;;;;;;;12.50;7.53;;;;;;;;;;5003954;28;20034;-85
2023/05/24 10:04:36;;;;;;;10.85;7.72;;;;;;;;;;4998181;28;20097;-85
2023/05/24 10:07:02;;;;;;;12.10;7.65;;;;;;;;;;4998899;28;20077;-86
2023/05/24 10:09:34;;;;;;;9.90;7.18;;;;;;;;;;4992639;28;20046;-85
2023/05/24 10:12:05;;;;;;;12.85;8.02;;;;;;;;;;5000415;28;20088;-85
2023/05/24 10:14:34;;;;;;;11.48;8.25;;;;;;;;;;4994814;28;20050;-86
2023/05/24 10:17:06;;;;;;;10.82;8.18;;;;;;;;;;4999863;28;20042;-84
2023/05/24 10:19:33;;;;;;;10.30;8.02;;;;;;;;;;5008348;28;20039;-83
2023/05/24 10:22:00;;;;;;;12.00;7.50;;;;;;;;;;4998670;28;20169;-86
2023/05/24 10:24:34;;;;;;;7.40;5.75;;;;;;;;;;4982050;28;20034;-83
2023/05/24 10:27:03;;;;;;;6.97;5.55;;;;;;;;;;4973644;28;20038;-85
2023/05/24 10:29:54;;;;;;;9.40;7.00;;;;;;;;;;4994357;28;20030;-82
2023/05/24 10:32:21;;;;;;;9.20;7.25;;;;;;;;;;4995275;28;20041;-84
2023/05/24 10:34:49;;;;;;;12.75;7.05;;;;;;;;;;4995296;28;20492;-83
2023/05/24 10:37:16;;;;;;;10.32;7.55;;;;;;;;;;4995484;28;20030;-85
2023/05/24 10:39:42;;;;;;;8.25;6.80;;;;;;;;;;4994842;28;20041;-86
2023/05/24 10:42:07;;;;;;;10.25;7.20;;;;;;;;;;4994768;28;20042;-84
2023/05/24 10:44:33;;;;;;;8.80;7.20;;;;;;;;;;4994785;28;20034;-84
2023/05/24 10:47:09;;;;;;;9.55;6.70;;;;;;;;;;4990563;28;20038;-84
2023/05/24 10:49:36;;;;;;;9.30;7.00;;;;;;;;;;4986275;28;20093;-84
2023/05/24 10:52:07;;;;;;;8.73;6.93;;;;;;;;;;5000902;28;20026;-86
2023/05/24 10:54:32;;;;;;;10.15;7.50;;;;;;;;;;4979627;28;20042;-85
2023/05/24 10:57:03;;;;;;;10.68;6.93;;;;;;;;;;4998662;28;20088;-87
2023/05/24 10:59:37;;;;;;;9.77;7.20;;;;;;;;;;4998131;28;20041;-85
2023/05/24 11:02:13;;;;;;;8.02;6.53;;;;;;;;;;4997686;28;20428;-84
2023/05/24 11:04:44;;;;;;;10.02;7.00;;;;;;;;;;4994112;28;20045;-85
2023/05/24 11:07:13;;;;;;;8.27;6.45;;;;;;;;;;4994891;28;20057;-82
2023/05/24 11:09:45;;;;;;;10.05;7.50;;;;;;;;;;4992998;28;20042;-82
2023/05/24 11:12:16;;;;;;;9.00;7.05;;;;;;;;;;4994720;28;20038;-83
2023/05/24 11:14:48;;;;;;;9.20;6.82;;;;;;;;;;4995382;28;20382;-82
2023/05/24 11:17:13;;;;;;;9.50;7.30;;;;;;;;;;4993246;28;20046;-82
2023/05/24 11:20:01;;;;;;;8.68;6.97;;;;;;;;;;4980983;28;20045;-84
2023/05/24 11:22:27;;;;;;;11.35;7.80;;;;;;;;;;4994552;28;20050;-85
2023/05/24 11:24:53;;;;;;;9.70;7.53;;;;;;;;;;4977942;28;20046;-84
2023/05/24 11:27:18;;;;;;;10.15;7.18;;;;;;;;;;4993643;28;20030;-83
2023/05/24 11:29:45;;;;;;;9.40;7.47;;;;;;;;;;4993935;28;20085;-85
2023/05/24 11:32:20;;;;;;;10.43;7.82;;;;;;;;;;4993393;28;20066;-84
2023/05/24 11:34:46;;;;;;;10.50;7.43;;;;;;;;;;4987091;28;20070;-85
2023/05/24 11:37:12;;;;;;;9.70;6.72;;;;;;;;;;4993049;28;20034;-84
2023/05/24 11:39:39;;;;;;;9.65;7.07;;;;;;;;;;4992532;28;20053;-84
2023/05/24 11:42:05;;;;;;;10.55;8.38;;;;;;;;;;4993447;28;20030;-84
2023/05/24 11:44:32;;;;;;;11.00;8.75;;;;;;;;;;4993579;28;20030;-83
2023/05/24 11:47:02;;;;;;;10.95;8.45;;;;;;;;;;4992781;28;20050;-83
2023/05/24 11:49:28;;;;;;;10.57;8.68;;;;;;;;;;4975357;28;20046;-83
2023/05/24 11:51:57;;;;;;;12.05;8.85;;;;;;;;;;4992965;28;20374;-84
2023/05/24 11:54:24;;;;;;;11.65;8.90;;;;;;;;;;4964580;28;20042;-83
2023/05/24 11:56:54;;;;;;;11.35;8.80;;;;;;;;;;4975542;28;20124;-84
2023/05/24 11:59:24;;;;;;;12.32;8.77;;;;;;;;;;4992948;28;20121;-84
2023/05/24 12:01:56;;;;;;;13.10;8.98;;;;;;;;;;4978766;28;20487;-83
2023/05/24 12:04:22;;;;;;;11.80;9.43;;;;;;;;;;4992286;28;20373;-84
2023/05/24 12:06:47;;;;;;;13.07;10.00;;;;;;;;;;4990606;28;20105;-84
2023/05/24 12:09:14;;;;;;;11.73;9.40;;;;;;;;;;4991808;28;20121;-83
2023/05/24 12:11:41;;;;;;;13.75;9.43;;;;;;;;;;4991192;28;20034;-83
2023/05/24 12:14:17;;;;;;;11.10;8.73;;;;;;;;;;4992254;28;20392;-84
2023/05/24 12:16:45;;;;;;;12.65;9.80;;;;;;;;;;4973171;28;20618;-85
2023/05/24 12:19:21;;;;;;;14.63;10.05;;;;;;;;;;4993149;28;20044;-85
2023/05/24 12:21:48;;;;;;;10.98;8.38;;;;;;;;;;4956194;28;20031;-84
2023/05/24 12:24:15;;;;;;;10.10;8.18;;;;;;;;;;4977112;28;20046;-82
2023/05/24 12:26:43;;;;;;;12.13;9.40;;;;;;;;;;4982805;28;20429;-85
2023/05/24 12:29:10;;;;;;;12.48;9.23;;;;;;;;;;4992789;28;20038;-84
2023/05/24 12:31:38;;;;;;;11.55;8.98;;;;;;;;;;4995161;28;20411;-83
2023/05/24 12:34:05;;;;;;;12.30;8.75;;;;;;;;;;4976853;28;20032;-85
2023/05/24 12:36:31;;;;;;;11.10;8.60;;;;;;;;;;4995256;28;20035;-83
2023/05/24 12:38:57;;;;;;;11.70;8.68;;;;;;;;;;4996437;28;20046;-83
2023/05/24 12:41:24;;;;;;;11.57;8.85;;;;;;;;;;4997786;28;20451;-83
2023/05/24 12:43:50;;;;;;;10.75;8.20;;;;;;;;;;4998250;28;20729;-84
2023/05/24 12:46:16;;;;;;;13.13;9.20;;;;;;;;;;4989470;28;20401;-85
2023/05/24 12:48:41;;;;;;;11.00;8.57;;;;;;;;;;4998128;28;20504;-85
2023/05/24 12:51:07;;;;;;;12.05;9.20;;;;;;;;;;4997560;28;20066;-83
2023/05/24 12:53:33;;;;;;;10.25;8.43;;;;;;;;;;4978244;28;20030;-83
2023/05/24 12:55:59;;;;;;;13.65;9.18;;;;;;;;;;4981319;28;20026;-85
2023/05/24 12:58:25;;;;;;;15.32;8.98;;;;;;;;;;4999061;28;20042;-85
2023/05/24 13:00:51;;;;;;;12.43;9.13;;;;;;;;;;5000091;28;20129;-88
2023/05/24 13:03:17;;;;;;;15.32;10.15;;;;;;;;;;4993705;28;20585;-88
2023/05/24 13:05:43;;;;;;;15.25;10.23;;;;;;;;;;4972996;28;20740;-88
2023/05/24 13:08:08;;;;;;;13.85;10.10;;;;;;;;;;4987585;28;20111;-89
2023/05/24 13:10:34;;;;;;;14.32;9.85;;;;;;;;;;4992163;28;20490;-87
2023/05/24 13:12:59;;;;;;;13.70;9.32;;;;;;;;;;5004333;28;20046;-87
2023/05/24 13:15:26;;;;;;;14.35;9.63;;;;;;;;;;4991056;28;20043;-88
2023/05/24 13:17:52;;;;;;;16.35;9.57;;;;;;;;;;4992889;28;20035;-88
2023/05/24 13:20:20;;;;;;;14.63;9.05;;;;;;;;;;4992903;28;20042;-86
2023/05/24 13:22:47;;;;;;;16.63;10.18;;;;;;;;;;4993085;28;20034;-88
2023/05/24 13:25:13;;;;;;;18.08;10.60;;;;;;;;;;4991011;28;20053;-86
2023/05/24 13:27:38;;;;;;;17.98;9.85;;;;;;;;;;4991365;28;20038;-86
2023/05/24 13:30:05;;;;;;;13.20;9.70;;;;;;;;;;4983562;28;20050;-89
2023/05/24 13:32:32;;;;;;;14.38;9.68;;;;;;;;;;4988959;28;20062;-88
2023/05/24 13:34:57;;;;;;;15.00;10.35;;;;;;;;;;4979523;28;20053;-86
2023/05/24 13:37:23;;;;;;;15.98;10.75;;;;;;;;;;4977091;28;20042;-88
2023/05/24 13:39:49;;;;;;;15.60;9.90;;;;;;;;;;4996345;28;20030;-89
2023/05/24 13:42:15;;;;;;;16.48;10.30;;;;;;;;;;4978293;28;20501;-90
2023/05/24 13:44:41;;;;;;;16.80;10.43;;;;;;;;;;4994487;28;20129;-88
2023/05/24 13:47:07;;;;;;;14.30;10.07;;;;;;;;;;4992040;28;20156;-89
2023/05/24 13:49:33;;;;;;;15.27;9.82;;;;;;;;;;4975732;28;20038;-88
2023/05/24 13:51:59;;;;;;;16.63;10.43;;;;;;;;;;4993777;28;20034;-88
2023/05/24 13:54:25;;;;;;;14.00;9.80;;;;;;;;;;4992491;28;20390;-87
2023/05/24 13:56:50;;;;;;;17.15;10.73;;;;;;;;;;4992340;28;20381;-88
2023/05/24 13:59:16;;;;;;;16.45;11.20;;;;;;;;;;5000322;28;20044;-84
2023/05/24 14:01:44;;;;;;;16.95;10.07;;;;;;;;;;4992133;28;20049;-82
2023/05/24 14:04:10;;;;;;;14.45;10.05;;;;;;;;;;5003368;28;20034;-81
2023/05/24 14:06:38;;;;;;;15.38;10.65;;;;;;;;;;5004002;28;20093;-85
2023/05/24 14:09:07;;;;;;;18.60;10.18;;;;;;;;;;5002905;28;20034;-83
2023/05/24 14:11:33;;;;;;;16.45;10.02;;;;;;;;;;4999125;28;20049;-83
2023/05/24 14:13:59;;;;;;;15.60;9.68;;;;;;;;;;4995714;28;20420;-84
2023/05/24 14:16:25;;;;;;;15.80;10.45;;;;;;;;;;4994882;28;20455;-86
2023/05/24 14:18:50;;;;;;;14.27;10.00;;;;;;;;;;4986010;28;20042;-85
2023/05/24 14:21:18;;;;;;;16.25;9.88;;;;;;;;;;4984398;28;20030;-85
2023/05/24 14:23:43;;;;;;;14.38;10.15;;;;;;;;;;4999331;28;20045;-86
2023/05/24 14:26:08;;;;;;;12.38;9.07;;;;;;;;;;5002515;28;20420;-87
2023/05/24 14:28:34;;;;;;;14.75;9.85;;;;;;;;;;4982818;28;20073;-82
2023/05/24 14:30:59;;;;;;;16.60;9.40;;;;;;;;;;4999009;28;20046;-86
2023/05/24 14:33:25;;;;;;;14.70;10.00;;;;;;;;;;5001000;28;20053;-82
2023/05/24 14:35:51;;;;;;;12.57;8.98;;;;;;;;;;4983328;28;20084;-81
2023/05/24 14:38:16;;;;;;;16.58;10.02;;;;;;;;;;5001192;28;20085;-82